sensor_id;sensor_type;location;lat;lon;timestamp;pressure;altitude;pressure_sealevel;temperature;humidity
70976;BME280;58635;51.198;6.010;2023-01-25T00:02:02;103521.19;;;5.25;57.06
70976;BME280;58635;51.198;6.010;2023-01-25T00:04:28;103517.72;;;5.26;57.29
70976;BME280;58635;51.198;6.010;2023-01-25T00:06:54;103520.28;;;5.26;57.41
70976;BME280;58635;51.198;6.010;2023-01-25T00:09:20;103510.94;;;5.25;57.26
70976;BME280;58635;51.198;6.010;2023-01-25T00:11:45;103509.19;;;5.26;56.88
70976;BME280;58635;51.198;6.010;2023-01-25T00:14:12;103511.66;;;5.27;57.02
70976;BME280;58635;51.198;6.010;2023-01-25T00:16:38;103503.13;;;5.27;57.06
70976;BME280;58635;51.198;6.010;2023-01-25T00:19:05;103509.00;;;5.29;57.30
70976;BME280;58635;51.198;6.010;2023-01-25T00:21:30;103513.31;;;5.28;57.50
70976;BME280;58635;51.198;6.010;2023-01-25T00:23:56;103499.75;;;5.26;57.52
70976;BME280;58635;51.198;6.010;2023-01-25T00:26:21;103503.13;;;5.27;57.52
70976;BME280;58635;51.198;6.010;2023-01-25T00:28:51;103509.00;;;5.29;57.46
70976;BME280;58635;51.198;6.010;2023-01-25T00:31:36;103509.91;;;5.28;57.43
70976;BME280;58635;51.198;6.010;2023-01-25T00:38:56;103498.28;;;5.22;57.17
70976;BME280;58635;51.198;6.010;2023-01-25T00:41:23;103494.81;;;5.23;57.58
70976;BME280;58635;51.198;6.010;2023-01-25T00:43:48;103494.06;;;5.21;57.46
70976;BME280;58635;51.198;6.010;2023-01-25T00:46:15;103489.84;;;5.20;57.35
70976;BME280;58635;51.198;6.010;2023-01-25T00:48:41;103491.50;;;5.21;57.11
70976;BME280;58635;51.198;6.010;2023-01-25T00:51:06;103491.41;;;5.23;57.20
70976;BME280;58635;51.198;6.010;2023-01-25T00:53:32;103489.56;;;5.25;57.29
70976;BME280;58635;51.198;6.010;2023-01-25T00:55:57;103486.91;;;5.26;57.55
70976;BME280;58635;51.198;6.010;2023-01-25T00:58:23;103488.66;;;5.26;57.33
70976;BME280;58635;51.198;6.010;2023-01-25T01:00:48;103491.22;;;5.26;57.20
70976;BME280;58635;51.198;6.010;2023-01-25T01:03:15;103490.50;;;5.24;57.35
70976;BME280;58635;51.198;6.010;2023-01-25T01:05:40;103484.53;;;5.23;57.29
70976;BME280;58635;51.198;6.010;2023-01-25T01:08:05;103485.63;;;5.19;57.37
70976;BME280;58635;51.198;6.010;2023-01-25T01:10:31;103478.31;;;5.13;57.37
70976;BME280;58635;51.198;6.010;2023-01-25T01:12:56;103481.97;;;5.09;57.55
70976;BME280;58635;51.198;6.010;2023-01-25T01:15:21;103470.03;;;5.08;57.28
70976;BME280;58635;51.198;6.010;2023-01-25T01:17:47;103475.16;;;5.08;57.73
70976;BME280;58635;51.198;6.010;2023-01-25T01:20:12;103470.88;;;5.09;57.75
70976;BME280;58635;51.198;6.010;2023-01-25T01:22:38;103469.97;;;5.10;57.74
70976;BME280;58635;51.198;6.010;2023-01-25T01:25:03;103471.53;;;5.12;57.86
70976;BME280;58635;51.198;6.010;2023-01-25T01:27:29;103475.75;;;5.13;57.53
70976;BME280;58635;51.198;6.010;2023-01-25T01:29:54;103474.81;;;5.14;57.80
70976;BME280;58635;51.198;6.010;2023-01-25T01:32:20;103473.91;;;5.15;57.42
70976;BME280;58635;51.198;6.010;2023-01-25T01:34:45;103477.19;;;5.17;57.58
70976;BME280;58635;51.198;6.010;2023-01-25T01:37:10;103478.00;;;5.18;57.54
70976;BME280;58635;51.198;6.010;2023-01-25T01:39:36;103468.88;;;5.14;57.95
70976;BME280;58635;51.198;6.010;2023-01-25T01:42:01;103466.41;;;5.12;57.69
70976;BME280;58635;51.198;6.010;2023-01-25T01:44:50;103475.75;;;5.13;57.56
70976;BME280;58635;51.198;6.010;2023-01-25T01:47:28;103470.50;;;5.15;57.68
70976;BME280;58635;51.198;6.010;2023-01-25T01:50:00;103473.81;;;5.17;57.82
70976;BME280;58635;51.198;6.010;2023-01-25T01:52:30;103477.19;;;5.17;58.06
70976;BME280;58635;51.198;6.010;2023-01-25T01:55:23;103475.75;;;5.13;58.00
70976;BME280;58635;51.198;6.010;2023-01-25T01:57:52;103473.91;;;5.15;57.87
70976;BME280;58635;51.198;6.010;2023-01-25T02:00:33;103469.59;;;5.16;57.93
70976;BME280;58635;51.198;6.010;2023-01-25T02:03:00;103470.41;;;5.16;57.86
70976;BME280;58635;51.198;6.010;2023-01-25T02:07:57;103470.22;;;5.19;58.04
70976;BME280;58635;51.198;6.010;2023-01-25T02:10:24;103477.09;;;5.19;57.99
70976;BME280;58635;51.198;6.010;2023-01-25T02:12:53;103475.34;;;5.19;58.19
70976;BME280;58635;51.198;6.010;2023-01-25T02:15:20;103467.94;;;5.15;58.14
70976;BME280;58635;51.198;6.010;2023-01-25T02:17:46;103460.44;;;5.12;58.11
70976;BME280;58635;51.198;6.010;2023-01-25T02:20:36;103458.03;;;5.09;58.10
70976;BME280;58635;51.198;6.010;2023-01-25T02:25:36;103451.09;;;5.11;57.97
70976;BME280;58635;51.198;6.010;2023-01-25T02:28:10;103463.72;;;5.14;58.07
70976;BME280;58635;51.198;6.010;2023-01-25T02:30:40;103463.84;;;5.12;57.88
70976;BME280;58635;51.198;6.010;2023-01-25T02:33:06;103458.69;;;5.12;58.14
70976;BME280;58635;51.198;6.010;2023-01-25T02:35:43;103456.97;;;5.13;58.44
70976;BME280;58635;51.198;6.010;2023-01-25T02:38:12;103453.56;;;5.12;57.96
70976;BME280;58635;51.198;6.010;2023-01-25T02:40:47;103458.69;;;5.12;57.93
70976;BME280;58635;51.198;6.010;2023-01-25T02:43:14;103456.03;;;5.14;58.00
70976;BME280;58635;51.198;6.010;2023-01-25T02:45:43;103462.00;;;5.14;58.32
70976;BME280;58635;51.198;6.010;2023-01-25T02:48:10;103455.94;;;5.15;58.25
70976;BME280;58635;51.198;6.010;2023-01-25T02:50:35;103455.94;;;5.15;58.12
70976;BME280;58635;51.198;6.010;2023-01-25T02:53:00;103452.47;;;5.16;58.21
70976;BME280;58635;51.198;6.010;2023-01-25T02:55:26;103449.16;;;5.14;58.04
70976;BME280;58635;51.198;6.010;2023-01-25T02:57:51;103454.50;;;5.11;57.89
70976;BME280;58635;51.198;6.010;2023-01-25T03:00:17;103445.97;;;5.11;58.04
70976;BME280;58635;51.198;6.010;2023-01-25T03:02:42;103450.19;;;5.12;57.74
70976;BME280;58635;51.198;6.010;2023-01-25T03:05:08;103445.88;;;5.12;57.71
70976;BME280;58635;51.198;6.010;2023-01-25T03:07:33;103449.34;;;5.11;58.11
70976;BME280;58635;51.198;6.010;2023-01-25T03:09:58;103447.03;;;5.07;57.80
70976;BME280;58635;51.198;6.010;2023-01-25T03:12:24;103441.38;;;5.02;57.99
70976;BME280;58635;51.198;6.010;2023-01-25T03:14:49;103439.00;;;4.98;57.93
70976;BME280;58635;51.198;6.010;2023-01-25T03:17:14;103445.06;;;4.97;57.83
70976;BME280;58635;51.198;6.010;2023-01-25T03:19:40;103439.84;;;4.99;58.17
70976;BME280;58635;51.198;6.010;2023-01-25T03:22:06;103431.22;;;5.00;58.33
70976;BME280;58635;51.198;6.010;2023-01-25T03:24:31;103443.03;;;5.03;57.91
70976;BME280;58635;51.198;6.010;2023-01-25T03:26:56;103431.13;;;5.02;57.82
70976;BME280;58635;51.198;6.010;2023-01-25T03:29:43;103423.34;;;5.03;58.50
70976;BME280;58635;51.198;6.010;2023-01-25T03:32:09;103423.34;;;5.03;58.11
70976;BME280;58635;51.198;6.010;2023-01-25T03:34:34;103433.50;;;5.05;58.56
70976;BME280;58635;51.198;6.010;2023-01-25T03:37:00;103429.28;;;5.04;58.20
70976;BME280;58635;51.198;6.010;2023-01-25T03:39:26;103430.19;;;5.03;58.45
70976;BME280;58635;51.198;6.010;2023-01-25T03:41:51;103427.81;;;4.99;58.39
70976;BME280;58635;51.198;6.010;2023-01-25T03:44:17;103416.00;;;4.97;57.99
70976;BME280;58635;51.198;6.010;2023-01-25T03:46:42;103423.69;;;4.97;58.51
70976;BME280;58635;51.198;6.010;2023-01-25T03:49:08;103417.72;;;4.96;58.36
70976;BME280;58635;51.198;6.010;2023-01-25T03:51:34;103417.66;;;4.98;58.45
70976;BME280;58635;51.198;6.010;2023-01-25T03:53:59;103419.41;;;4.97;58.47
70976;BME280;58635;51.198;6.010;2023-01-25T03:56:25;103417.81;;;4.95;58.17
70976;BME280;58635;51.198;6.010;2023-01-25T03:58:50;103422.03;;;4.96;58.29
70976;BME280;58635;51.198;6.010;2023-01-25T04:01:16;103422.88;;;4.96;58.28
70976;BME280;58635;51.198;6.010;2023-01-25T04:03:41;103415.16;;;4.96;57.94
70976;BME280;58635;51.198;6.010;2023-01-25T04:06:07;103418.66;;;4.95;58.38
70976;BME280;58635;51.198;6.010;2023-01-25T04:08:33;103416.09;;;4.95;58.50
70976;BME280;58635;51.198;6.010;2023-01-25T04:11:07;103412.78;;;4.93;58.24
70976;BME280;58635;51.198;6.010;2023-01-25T04:13:33;103406.03;;;4.92;58.39
70976;BME280;58635;51.198;6.010;2023-01-25T04:16:02;103405.28;;;4.90;58.07
70976;BME280;58635;51.198;6.010;2023-01-25T04:18:28;103402.72;;;4.90;58.21
70976;BME280;58635;51.198;6.010;2023-01-25T04:20:54;103405.28;;;4.90;58.25
70976;BME280;58635;51.198;6.010;2023-01-25T04:23:20;103399.25;;;4.91;58.43
70976;BME280;58635;51.198;6.010;2023-01-25T04:26:00;103396.78;;;4.90;58.45
70976;BME280;58635;51.198;6.010;2023-01-25T04:28:27;103397.59;;;4.90;58.27
70976;BME280;58635;51.198;6.010;2023-01-25T04:30:54;103393.38;;;4.89;58.36
70976;BME280;58635;51.198;6.010;2023-01-25T04:33:20;103386.72;;;4.87;58.46
70976;BME280;58635;51.198;6.010;2023-01-25T04:35:45;103391.91;;;4.85;58.56
70976;BME280;58635;51.198;6.010;2023-01-25T04:38:11;103384.41;;;4.82;58.26
70976;BME280;58635;51.198;6.010;2023-01-25T04:40:37;103386.78;;;4.85;58.75
70976;BME280;58635;51.198;6.010;2023-01-25T04:43:03;103382.41;;;4.87;58.34
70976;BME280;58635;51.198;6.010;2023-01-25T04:45:28;103355.66;;;4.77;58.40
70976;BME280;58635;51.198;6.010;2023-01-25T04:48:02;103367.94;;;4.86;58.83
70976;BME280;58635;51.198;6.010;2023-01-25T04:50:27;103368.75;;;4.87;58.75
70976;BME280;58635;51.198;6.010;2023-01-25T04:52:53;103361.06;;;4.87;58.47
70976;BME280;58635;51.198;6.010;2023-01-25T04:55:19;103360.06;;;4.89;58.53
70976;BME280;58635;51.198;6.010;2023-01-25T04:57:44;103361.59;;;4.92;58.51
70976;BME280;58635;51.198;6.010;2023-01-25T05:00:11;103361.41;;;4.95;58.57
70976;BME280;58635;51.198;6.010;2023-01-25T05:02:36;103361.31;;;4.96;58.55
70976;BME280;58635;51.198;6.010;2023-01-25T05:05:04;103353.44;;;4.99;58.77
70976;BME280;58635;51.198;6.010;2023-01-25T05:07:29;103349.97;;;5.01;58.97
70976;BME280;58635;51.198;6.010;2023-01-25T05:09:54;103353.25;;;5.03;58.57
70976;BME280;58635;51.198;6.010;2023-01-25T05:12:20;103362.59;;;5.04;58.46
70976;BME280;58635;51.198;6.010;2023-01-25T05:14:45;103355.72;;;5.04;58.93
70976;BME280;58635;51.198;6.010;2023-01-25T05:17:11;103350.50;;;5.06;58.51
70976;BME280;58635;51.198;6.010;2023-01-25T05:19:36;103341.06;;;5.06;58.51
70976;BME280;58635;51.198;6.010;2023-01-25T05:22:02;103347.81;;;5.07;58.37
70976;BME280;58635;51.198;6.010;2023-01-25T05:24:32;103348.66;;;5.08;58.31
70976;BME280;58635;51.198;6.010;2023-01-25T05:26:59;103342.69;;;5.07;58.42
70976;BME280;58635;51.198;6.010;2023-01-25T05:29:27;103344.53;;;5.05;58.73
70976;BME280;58635;51.198;6.010;2023-01-25T05:31:53;103345.38;;;5.06;58.65
70976;BME280;58635;51.198;6.010;2023-01-25T05:34:19;103338.59;;;5.05;58.74
70976;BME280;58635;51.198;6.010;2023-01-25T05:36:44;103344.44;;;5.07;58.61
70976;BME280;58635;51.198;6.010;2023-01-25T05:39:10;103339.31;;;5.07;58.65
70976;BME280;58635;51.198;6.010;2023-01-25T05:41:35;103337.47;;;5.09;59.01
70976;BME280;58635;51.198;6.010;2023-01-25T05:44:00;103335.75;;;5.09;58.64
70976;BME280;58635;51.198;6.010;2023-01-25T05:46:26;103339.16;;;5.10;58.56
70976;BME280;58635;51.198;6.010;2023-01-25T05:48:52;103339.16;;;5.10;58.67
70976;BME280;58635;51.198;6.010;2023-01-25T05:51:18;103339.97;;;5.10;59.03
70976;BME280;58635;51.198;6.010;2023-01-25T05:53:43;103344.19;;;5.11;58.91
70976;BME280;58635;51.198;6.010;2023-01-25T05:56:09;103342.59;;;5.09;58.94
70976;BME280;58635;51.198;6.010;2023-01-25T05:58:35;103346.03;;;5.09;58.50
70976;BME280;58635;51.198;6.010;2023-01-25T06:01:05;103340.88;;;5.09;58.54
70976;BME280;58635;51.198;6.010;2023-01-25T06:03:31;103339.16;;;5.10;58.53
70976;BME280;58635;51.198;6.010;2023-01-25T06:05:59;103341.72;;;5.10;58.61
70976;BME280;58635;51.198;6.010;2023-01-25T06:08:27;103334.84;;;5.10;58.66
70976;BME280;58635;51.198;6.010;2023-01-25T06:10:52;103342.44;;;5.12;58.84
70976;BME280;58635;51.198;6.010;2023-01-25T06:13:18;103332.28;;;5.10;58.90
70976;BME280;58635;51.198;6.010;2023-01-25T06:15:51;103327.16;;;5.10;59.00
70976;BME280;58635;51.198;6.010;2023-01-25T06:18:17;103327.03;;;5.12;58.59
70976;BME280;58635;51.198;6.010;2023-01-25T06:20:42;103330.53;;;5.11;59.20
70976;BME280;58635;51.198;6.010;2023-01-25T06:23:07;103333.81;;;5.13;58.84
70976;BME280;58635;51.198;6.010;2023-01-25T06:25:33;103333.81;;;5.13;59.12
70976;BME280;58635;51.198;6.010;2023-01-25T06:27:58;103328.69;;;5.13;58.77
70976;BME280;58635;51.198;6.010;2023-01-25T06:30:23;103327.88;;;5.12;59.15
70976;BME280;58635;51.198;6.010;2023-01-25T06:32:49;103333.81;;;5.13;59.12
70976;BME280;58635;51.198;6.010;2023-01-25T06:35:14;103329.50;;;5.13;58.96
70976;BME280;58635;51.198;6.010;2023-01-25T06:37:40;103332.06;;;5.13;58.96
70976;BME280;58635;51.198;6.010;2023-01-25T06:40:05;103332.06;;;5.13;59.01
70976;BME280;58635;51.198;6.010;2023-01-25T06:42:31;103327.88;;;5.12;59.16
70976;BME280;58635;51.198;6.010;2023-01-25T06:44:56;103322.75;;;5.12;59.15
70976;BME280;58635;51.198;6.010;2023-01-25T06:47:21;103321.09;;;5.11;58.64
70976;BME280;58635;51.198;6.010;2023-01-25T06:49:47;103322.00;;;5.10;58.79
70976;BME280;58635;51.198;6.010;2023-01-25T06:52:12;103326.22;;;5.11;58.82
70976;BME280;58635;51.198;6.010;2023-01-25T06:54:38;103322.00;;;5.10;59.14
70976;BME280;58635;51.198;6.010;2023-01-25T06:57:03;103316.88;;;5.10;58.98
70976;BME280;58635;51.198;6.010;2023-01-25T06:59:28;103318.63;;;5.10;58.78
70976;BME280;58635;51.198;6.010;2023-01-25T07:01:54;103322.09;;;5.09;58.92
70976;BME280;58635;51.198;6.010;2023-01-25T07:04:19;103324.66;;;5.09;59.08
70976;BME280;58635;51.198;6.010;2023-01-25T07:06:44;103320.44;;;5.08;58.99
70976;BME280;58635;51.198;6.010;2023-01-25T07:09:12;103327.41;;;5.06;58.65
70976;BME280;58635;51.198;6.010;2023-01-25T07:11:38;103330.06;;;5.04;58.54
70976;BME280;58635;51.198;6.010;2023-01-25T07:14:04;103327.69;;;5.01;58.36
70976;BME280;58635;51.198;6.010;2023-01-25T07:16:30;103326.16;;;4.98;58.75
70976;BME280;58635;51.198;6.010;2023-01-25T07:19:02;103330.47;;;4.98;58.52
70976;BME280;58635;51.198;6.010;2023-01-25T07:21:28;103328.78;;;4.97;58.61
70976;BME280;58635;51.198;6.010;2023-01-25T07:23:58;103323.84;;;4.94;58.68
70976;BME280;58635;51.198;6.010;2023-01-25T07:26:24;103327.25;;;4.94;59.04
70976;BME280;58635;51.198;6.010;2023-01-25T07:28:51;103317.91;;;4.93;58.84
70976;BME280;58635;51.198;6.010;2023-01-25T07:31:17;103319.53;;;4.94;59.06
70976;BME280;58635;51.198;6.010;2023-01-25T07:33:46;103319.44;;;4.96;58.61
70976;BME280;58635;51.198;6.010;2023-01-25T07:36:12;103321.19;;;4.95;58.85
70976;BME280;58635;51.198;6.010;2023-01-25T07:38:38;103319.38;;;4.97;58.62
70976;BME280;58635;51.198;6.010;2023-01-25T07:41:04;103324.50;;;4.97;58.84
70976;BME280;58635;51.198;6.010;2023-01-25T07:43:29;103326.97;;;4.99;59.15
70976;BME280;58635;51.198;6.010;2023-01-25T07:46:03;103322.56;;;5.01;59.03
70976;BME280;58635;51.198;6.010;2023-01-25T07:48:29;103318.25;;;5.02;59.06
70976;BME280;58635;51.198;6.010;2023-01-25T07:51:00;103315.59;;;5.03;58.78
70976;BME280;58635;51.198;6.010;2023-01-25T07:53:50;103321.56;;;5.04;59.16
70976;BME280;58635;51.198;6.010;2023-01-25T07:56:17;103323.19;;;5.05;58.66
70976;BME280;58635;51.198;6.010;2023-01-25T07:58:43;103322.28;;;5.06;58.96
70976;BME280;58635;51.198;6.010;2023-01-25T08:01:12;103323.09;;;5.06;58.81
70976;BME280;58635;51.198;6.010;2023-01-25T08:03:38;103315.41;;;5.06;58.72
70976;BME280;58635;51.198;6.010;2023-01-25T08:06:04;103318.78;;;5.07;58.54
70976;BME280;58635;51.198;6.010;2023-01-25T08:08:31;103317.06;;;5.07;58.60
70976;BME280;58635;51.198;6.010;2023-01-25T08:11:00;103312.84;;;5.06;58.78
70976;BME280;58635;51.198;6.010;2023-01-25T08:13:25;103308.63;;;5.05;58.60
70976;BME280;58635;51.198;6.010;2023-01-25T08:15:54;103308.63;;;5.05;58.80
70976;BME280;58635;51.198;6.010;2023-01-25T08:18:20;103313.75;;;5.05;58.89
70976;BME280;58635;51.198;6.010;2023-01-25T08:20:46;103319.72;;;5.06;58.74
70976;BME280;58635;51.198;6.010;2023-01-25T08:23:12;103312.84;;;5.06;58.73
70976;BME280;58635;51.198;6.010;2023-01-25T08:25:37;103310.28;;;5.06;58.61
70976;BME280;58635;51.198;6.010;2023-01-25T08:28:04;103305.16;;;5.06;58.46
70976;BME280;58635;51.198;6.010;2023-01-25T08:30:29;103303.41;;;5.07;58.74
70976;BME280;58635;51.198;6.010;2023-01-25T08:32:55;103306.88;;;5.06;58.43
70976;BME280;58635;51.198;6.010;2023-01-25T08:35:20;103306.78;;;5.07;58.62
70976;BME280;58635;51.198;6.010;2023-01-25T08:37:45;103308.44;;;5.08;58.73
70976;BME280;58635;51.198;6.010;2023-01-25T08:40:11;103299.91;;;5.08;58.35
70976;BME280;58635;51.198;6.010;2023-01-25T08:42:38;103304.13;;;5.09;58.25
70976;BME280;58635;51.198;6.010;2023-01-25T08:45:04;103292.97;;;5.10;58.56
70976;BME280;58635;51.198;6.010;2023-01-25T08:47:30;103289.47;;;5.11;58.89
70976;BME280;58635;51.198;6.010;2023-01-25T08:49:55;103292.88;;;5.11;58.27
70976;BME280;58635;51.198;6.010;2023-01-25T08:52:20;103297.19;;;5.11;58.42
70976;BME280;58635;51.198;6.010;2023-01-25T08:54:46;103303.22;;;5.10;58.24
70976;BME280;58635;51.198;6.010;2023-01-25T08:57:12;103290.41;;;5.10;58.38
70976;BME280;58635;51.198;6.010;2023-01-25T08:59:37;103286.09;;;5.10;58.37
70976;BME280;58635;51.198;6.010;2023-01-25T09:02:02;103280.16;;;5.10;58.67
70976;BME280;58635;51.198;6.010;2023-01-25T09:04:28;103281.78;;;5.11;58.79
70976;BME280;58635;51.198;6.010;2023-01-25T09:06:54;103275.09;;;5.08;58.59
70976;BME280;58635;51.198;6.010;2023-01-25T09:09:20;103279.22;;;5.11;58.29
70976;BME280;58635;51.198;6.010;2023-01-25T09:11:46;103277.47;;;5.11;58.46
70976;BME280;58635;51.198;6.010;2023-01-25T09:14:12;103279.94;;;5.13;58.46
70976;BME280;58635;51.198;6.010;2023-01-25T09:16:37;103283.13;;;5.16;58.13
70976;BME280;58635;51.198;6.010;2023-01-25T09:19:04;103287.44;;;5.16;57.95
70976;BME280;58635;51.198;6.010;2023-01-25T09:21:30;103277.28;;;5.14;58.31
70976;BME280;58635;51.198;6.010;2023-01-25T09:23:55;103283.03;;;5.18;58.28
70976;BME280;58635;51.198;6.010;2023-01-25T09:26:21;103276.16;;;5.18;57.95
70976;BME280;58635;51.198;6.010;2023-01-25T09:28:49;103278.63;;;5.20;58.41
70976;BME280;58635;51.198;6.010;2023-01-25T09:31:15;103276.81;;;5.22;58.54
70976;BME280;58635;51.198;6.010;2023-01-25T09:33:41;103271.69;;;5.22;58.04
70976;BME280;58635;51.198;6.010;2023-01-25T09:36:07;103269.84;;;5.24;58.21
70976;BME280;58635;51.198;6.010;2023-01-25T09:38:33;103272.41;;;5.24;57.94
70976;BME280;58635;51.198;6.010;2023-01-25T09:47:25;103266.44;;;5.23;57.98
70976;BME280;58635;51.198;6.010;2023-01-25T09:55:43;103260.28;;;5.26;58.28
70976;BME280;58635;51.198;6.010;2023-01-25T09:58:13;103257.63;;;5.27;58.26
70976;BME280;58635;51.198;6.010;2023-01-25T10:00:44;103256.69;;;5.28;58.12
70976;BME280;58635;51.198;6.010;2023-01-25T10:03:25;103262.44;;;5.32;58.12
70976;BME280;58635;51.198;6.010;2023-01-25T10:05:57;103260.81;;;5.31;57.86
70976;BME280;58635;51.198;6.010;2023-01-25T10:08:39;103265.13;;;5.31;57.98
70976;BME280;58635;51.198;6.010;2023-01-25T10:13:38;103259.06;;;5.32;57.86
70976;BME280;58635;51.198;6.010;2023-01-25T10:16:09;103253.94;;;5.32;57.94
70976;BME280;58635;51.198;6.010;2023-01-25T10:18:53;103258.25;;;5.31;57.93
70976;BME280;58635;51.198;6.010;2023-01-25T10:21:30;103256.50;;;5.32;57.70
70976;BME280;58635;51.198;6.010;2023-01-25T10:26:44;103252.00;;;5.35;58.12
70976;BME280;58635;51.198;6.010;2023-01-25T10:31:47;103245.84;;;5.38;57.87
70976;BME280;58635;51.198;6.010;2023-01-25T10:34:27;103244.81;;;5.40;58.11
70976;BME280;58635;51.198;6.010;2023-01-25T10:36:55;103232.00;;;5.40;57.77
70976;BME280;58635;51.198;6.010;2023-01-25T10:39:21;103233.63;;;5.41;57.93
70976;BME280;58635;51.198;6.010;2023-01-25T10:41:50;103228.41;;;5.43;57.73
70976;BME280;58635;51.198;6.010;2023-01-25T10:44:20;103228.50;;;5.41;57.43
70976;BME280;58635;51.198;6.010;2023-01-25T10:47:03;103223.47;;;5.40;57.56
70976;BME280;58635;51.198;6.010;2023-01-25T10:54:42;103204.69;;;5.39;57.45
70976;BME280;58635;51.198;6.010;2023-01-25T10:57:12;103208.06;;;5.40;57.48
70976;BME280;58635;51.198;6.010;2023-01-25T10:59:43;103204.69;;;5.39;57.41
70976;BME280;58635;51.198;6.010;2023-01-25T11:05:23;103193.00;;;5.35;57.48
70976;BME280;58635;51.198;6.010;2023-01-25T11:07:48;103196.38;;;5.36;57.64
70976;BME280;58635;51.198;6.010;2023-01-25T11:10:33;103187.03;;;5.35;57.73
70976;BME280;58635;51.198;6.010;2023-01-25T11:15:42;103174.91;;;5.37;58.07
70976;BME280;58635;51.198;6.010;2023-01-25T11:18:15;103162.09;;;5.37;57.80
70976;BME280;58635;51.198;6.010;2023-01-25T11:20:42;103165.16;;;5.42;57.86
70976;BME280;58635;51.198;6.010;2023-01-25T11:23:24;103161.56;;;5.44;57.78
70976;BME280;58635;51.198;6.010;2023-01-25T11:25:50;103159.00;;;5.44;57.67
70976;BME280;58635;51.198;6.010;2023-01-25T11:28:20;103149.59;;;5.45;57.54
70976;BME280;58635;51.198;6.010;2023-01-25T11:30:48;103142.78;;;5.44;57.47
70976;BME280;58635;51.198;6.010;2023-01-25T11:33:16;103140.22;;;5.44;57.07
70976;BME280;58635;51.198;6.010;2023-01-25T11:38:31;103133.34;;;5.44;57.31
70976;BME280;58635;51.198;6.010;2023-01-25T11:51:24;103103.88;;;5.50;57.40
70976;BME280;58635;51.198;6.010;2023-01-25T11:59:53;103089.09;;;5.53;57.39
70976;BME280;58635;51.198;6.010;2023-01-25T12:11:04;103058.09;;;5.56;57.17
70976;BME280;58635;51.198;6.010;2023-01-25T12:22:45;103022.16;;;5.56;57.26
70976;BME280;58635;51.198;6.010;2023-01-25T12:33:20;102999.78;;;5.58;57.14
70976;BME280;58635;51.198;6.010;2023-01-25T12:35:55;102994.63;;;5.58;57.54
70976;BME280;58635;51.198;6.010;2023-01-25T12:38:31;102981.81;;;5.58;57.33
70976;BME280;58635;51.198;6.010;2023-01-25T12:41:03;102976.56;;;5.60;57.12
70976;BME280;58635;51.198;6.010;2023-01-25T12:43:37;102976.03;;;5.55;57.39
70976;BME280;58635;51.198;6.010;2023-01-25T12:46:13;102969.91;;;5.57;57.38
70976;BME280;58635;51.198;6.010;2023-01-25T12:48:43;102958.81;;;5.57;57.33
70976;BME280;58635;51.198;6.010;2023-01-25T12:51:12;102962.28;;;5.56;57.37
70976;BME280;58635;51.198;6.010;2023-01-25T12:53:41;102952.13;;;5.54;56.93
70976;BME280;58635;51.198;6.010;2023-01-25T12:56:11;102944.53;;;5.53;57.13
70976;BME280;58635;51.198;6.010;2023-01-25T12:58:50;102943.59;;;5.54;57.20
70976;BME280;58635;51.198;6.010;2023-01-25T13:01:36;102934.25;;;5.53;57.27
70976;BME280;58635;51.198;6.010;2023-01-25T13:04:26;102924.94;;;5.52;57.38
70976;BME280;58635;51.198;6.010;2023-01-25T13:07:21;102932.75;;;5.50;57.18
70976;BME280;58635;51.198;6.010;2023-01-25T13:10:15;102919.09;;;5.50;57.15
70976;BME280;58635;51.198;6.010;2023-01-25T13:13:00;102919.78;;;5.52;57.15
70976;BME280;58635;51.198;6.010;2023-01-25T13:18:00;102901.94;;;5.50;57.48
70976;BME280;58635;51.198;6.010;2023-01-25T13:20:59;102908.59;;;5.53;57.67
70976;BME280;58635;51.198;6.010;2023-01-25T13:23:36;102904.50;;;5.50;57.58
70976;BME280;58635;51.198;6.010;2023-01-25T13:39:43;102885.94;;;5.47;57.53
70976;BME280;58635;51.198;6.010;2023-01-25T13:44:41;102871.47;;;5.46;57.49
70976;BME280;58635;51.198;6.010;2023-01-25T13:47:12;102874.25;;;5.43;57.23
70976;BME280;58635;51.198;6.010;2023-01-25T13:49:56;102882.88;;;5.42;57.40
70976;BME280;58635;51.198;6.010;2023-01-25T13:52:23;102881.13;;;5.42;57.46
70976;BME280;58635;51.198;6.010;2023-01-25T13:54:51;102866.06;;;5.38;57.53
70976;BME280;58635;51.198;6.010;2023-01-25T13:57:36;102875.38;;;5.39;57.40
70976;BME280;58635;51.198;6.010;2023-01-25T14:00:05;102871.06;;;5.39;57.50
70976;BME280;58635;51.198;6.010;2023-01-25T14:02:32;102861.75;;;5.38;57.88
70976;BME280;58635;51.198;6.010;2023-01-25T14:04:59;102858.25;;;5.39;58.07
70976;BME280;58635;51.198;6.010;2023-01-25T14:07:30;102859.88;;;5.40;57.47
70976;BME280;58635;51.198;6.010;2023-01-25T14:10:00;102866.75;;;5.40;57.97
70976;BME280;58635;51.198;6.010;2023-01-25T14:12:36;102858.13;;;5.41;57.95
70976;BME280;58635;51.198;6.010;2023-01-25T14:15:21;102855.69;;;5.39;58.12
70976;BME280;58635;51.198;6.010;2023-01-25T14:18:13;102852.41;;;5.37;57.60
70976;BME280;58635;51.198;6.010;2023-01-25T14:20:42;102838.16;;;5.33;57.92
70976;BME280;58635;51.198;6.010;2023-01-25T14:23:25;102845.75;;;5.35;58.12
70976;BME280;58635;51.198;6.010;2023-01-25T14:25:52;102844.00;;;5.35;58.23
70976;BME280;58635;51.198;6.010;2023-01-25T14:28:18;102851.69;;;5.35;57.77
70976;BME280;58635;51.198;6.010;2023-01-25T14:30:49;102850.88;;;5.35;57.93
70976;BME280;58635;51.198;6.010;2023-01-25T14:33:27;102845.13;;;5.31;57.58
70976;BME280;58635;51.198;6.010;2023-01-25T14:35:55;102837.53;;;5.29;57.90
70976;BME280;58635;51.198;6.010;2023-01-25T14:38:33;102834.28;;;5.27;57.50
70976;BME280;58635;51.198;6.010;2023-01-25T14:41:15;102834.38;;;5.26;57.95
70976;BME280;58635;51.198;6.010;2023-01-25T14:43:42;102835.31;;;5.25;57.99
70976;BME280;58635;51.198;6.010;2023-01-25T14:46:34;102828.53;;;5.24;57.64
70976;BME280;58635;51.198;6.010;2023-01-25T14:51:47;102827.03;;;5.21;58.14
70976;BME280;58635;51.198;6.010;2023-01-25T14:54:19;102834.09;;;5.18;58.15
70976;BME280;58635;51.198;6.010;2023-01-25T14:56:58;102825.91;;;5.13;58.35